createdAt,value
2022-11-19T00:01:34.602Z,9.93
2022-11-19T00:04:02.419Z,10.23
2022-11-19T00:06:30.205Z,10.17
2022-11-19T00:08:58.008Z,9.87
2022-11-19T00:11:47.581Z,10.67
2022-11-19T00:14:16.710Z,9.80
2022-11-19T00:16:46.301Z,10.87
2022-11-19T00:19:14.570Z,11.63
2022-11-19T00:21:42.418Z,10.93
2022-11-19T00:24:10.957Z,10.20
2022-11-19T00:26:40.021Z,10.10
2022-11-19T00:29:07.818Z,9.57
2022-11-19T00:31:35.606Z,9.70
2022-11-19T00:34:03.389Z,10.20
2022-11-19T00:36:31.205Z,10.40
2022-11-19T00:38:59.018Z,10.10
2022-11-19T00:41:26.751Z,10.43
2022-11-19T00:43:55.929Z,10.70
2022-11-19T00:46:26.498Z,10.40
2022-11-19T00:48:56.122Z,10.13
2022-11-19T00:51:25.970Z,11.10
2022-11-19T00:53:53.942Z,10.63
2022-11-19T00:56:23.981Z,10.93
2022-11-19T00:58:51.886Z,10.93
2022-11-19T01:01:24.078Z,11.07
2022-11-19T01:03:52.069Z,10.93
2022-11-19T01:06:21.749Z,10.63
2022-11-19T01:08:51.157Z,11.33
2022-11-19T01:11:20.951Z,10.37
2022-11-19T01:13:49.506Z,10.20
2022-11-19T01:16:20.804Z,8.90
2022-11-19T01:18:49.926Z,8.77
2022-11-19T01:21:19.174Z,9.23
2022-11-19T01:23:47.862Z,8.60
2022-11-19T01:26:16.979Z,9.10
2022-11-19T01:28:45.603Z,8.83
2022-11-19T01:31:15.689Z,9.03
2022-11-19T01:33:45.265Z,9.57
2022-11-19T01:36:16.506Z,9.67
2022-11-19T01:38:50.475Z,8.80
2022-11-19T01:41:18.652Z,9.13
2022-11-19T01:43:48.357Z,8.90
2022-11-19T01:46:18.679Z,9.00
2022-11-19T01:48:51.659Z,8.80
2022-11-19T01:51:25.791Z,8.53
2022-11-19T01:53:57.806Z,9.67
2022-11-19T01:56:26.858Z,10.13
2022-11-19T01:58:58.776Z,9.70
2022-11-19T02:01:26.803Z,10.40
2022-11-19T02:03:56.226Z,10.43
2022-11-19T02:06:24.069Z,10.10
2022-11-19T02:08:52.908Z,10.40
2022-11-19T02:11:38.033Z,10.57
2022-11-19T02:14:18.498Z,10.50
2022-11-19T02:16:55.162Z,11.37
2022-11-19T02:19:53.268Z,11.77
2022-11-19T02:22:41.189Z,11.97
2022-11-19T02:25:20.820Z,13.07
2022-11-19T02:28:18.139Z,12.80
2022-11-19T02:30:51.012Z,13.27
2022-11-19T02:33:25.355Z,15.13
2022-11-19T02:36:00.010Z,14.63
2022-11-19T02:38:33.055Z,15.20
2022-11-19T02:41:25.949Z,14.10
2022-11-19T02:44:19.815Z,15.20
2022-11-19T02:46:52.428Z,14.40
2022-11-19T02:49:25.141Z,14.10
2022-11-19T02:51:53.418Z,14.53
2022-11-19T02:54:21.282Z,14.50
2022-11-19T02:56:52.898Z,14.87
2022-11-19T02:59:43.749Z,14.17
2022-11-19T03:02:33.249Z,14.07
2022-11-19T03:05:01.793Z,14.07
2022-11-19T03:07:29.707Z,14.47
2022-11-19T03:10:03.861Z,14.50
2022-11-19T03:12:43.411Z,15.27
2022-11-19T03:15:41.533Z,15.23
2022-11-19T03:18:17.208Z,14.37
2022-11-19T03:20:49.841Z,14.87
2022-11-19T03:23:22.827Z,15.53
2022-11-19T03:25:55.238Z,15.27
2022-11-19T03:28:26.453Z,14.23
2022-11-19T03:30:56.488Z,14.57
2022-11-19T03:33:29.531Z,14.83
2022-11-19T03:36:02.302Z,15.57
2022-11-19T03:38:34.079Z,16.73
2022-11-19T03:41:04.373Z,15.67
2022-11-19T03:43:37.426Z,16.30
2022-11-19T03:46:11.216Z,16.13
2022-11-19T03:48:40.774Z,17.07
2022-11-19T03:51:13.948Z,17.10
2022-11-19T03:53:41.803Z,16.80
2022-11-19T03:56:13.026Z,16.63
2022-11-19T03:58:42.948Z,16.30
2022-11-19T04:01:11.497Z,16.83
2022-11-19T04:03:39.649Z,17.07
2022-11-19T04:06:11.111Z,17.00
2022-11-19T04:08:38.851Z,17.73
2022-11-19T04:13:34.965Z,16.97
2022-11-19T04:16:02.714Z,17.60
2022-11-19T04:18:30.493Z,17.70
2022-11-19T04:20:58.262Z,16.73
2022-11-19T04:23:27.374Z,16.97
2022-11-19T04:25:55.162Z,16.07
2022-11-19T04:28:22.934Z,17.50
2022-11-19T04:30:50.783Z,16.90
2022-11-19T04:33:18.977Z,16.27
2022-11-19T04:35:47.261Z,16.93
2022-11-19T04:38:15.000Z,16.40
2022-11-19T04:40:44.360Z,17.73
2022-11-19T04:43:12.114Z,17.23
2022-11-19T04:45:39.920Z,17.93
2022-11-19T04:48:08.040Z,18.60
2022-11-19T04:50:35.818Z,18.77
2022-11-19T04:53:03.616Z,18.73
2022-11-19T04:55:31.428Z,19.37
2022-11-19T04:58:00.557Z,19.40
2022-11-19T05:00:30.534Z,19.50
2022-11-19T05:02:58.311Z,18.57
2022-11-19T05:05:26.174Z,18.70
2022-11-19T05:07:53.995Z,19.57
2022-11-19T05:10:22.330Z,20.53
2022-11-19T05:12:50.113Z,20.00
2022-11-19T05:15:19.475Z,21.47
2022-11-19T05:17:48.038Z,21.50
2022-11-19T05:20:16.391Z,21.00
2022-11-19T05:22:44.201Z,21.60
2022-11-19T05:25:12.023Z,21.90
2022-11-19T05:27:39.791Z,22.13
2022-11-19T05:30:09.195Z,24.10
2022-11-19T05:32:38.459Z,23.77
2022-11-19T05:35:06.818Z,23.07
2022-11-19T05:37:34.648Z,24.40
2022-11-19T05:40:02.473Z,23.83
2022-11-19T05:42:30.277Z,23.50
2022-11-19T05:44:58.111Z,24.57
2022-11-19T05:47:25.929Z,23.83
2022-11-19T05:49:55.121Z,23.43
2022-11-19T05:52:22.928Z,23.73
2022-11-19T05:54:50.788Z,23.67
2022-11-19T05:57:18.573Z,24.40
2022-11-19T05:59:46.357Z,24.27
2022-11-19T06:02:14.180Z,24.93
2022-11-19T06:04:41.918Z,23.40
2022-11-19T06:07:11.128Z,22.23
2022-11-19T06:09:38.963Z,22.73
2022-11-19T06:12:07.242Z,22.43
2022-11-19T06:14:35.097Z,22.03
2022-11-19T06:17:02.885Z,22.63
2022-11-19T06:19:30.728Z,22.13
2022-11-19T06:21:58.536Z,22.40
2022-11-19T06:24:27.698Z,22.30
2022-11-19T06:26:55.554Z,22.50
2022-11-19T06:29:23.385Z,21.70
2022-11-19T06:31:51.306Z,20.20
2022-11-19T06:34:19.117Z,21.07
2022-11-19T06:36:50.531Z,22.10
2022-11-19T06:39:19.273Z,21.80
2022-11-19T06:41:49.445Z,22.07
2022-11-19T06:44:17.321Z,21.87
2022-11-19T06:46:45.198Z,21.47
2022-11-19T06:49:18.427Z,20.73
2022-11-19T06:51:48.078Z,20.53
2022-11-19T06:54:15.917Z,21.17
2022-11-19T06:56:43.728Z,21.20
2022-11-19T06:59:12.879Z,21.13
2022-11-19T07:01:40.718Z,21.57
2022-11-19T07:04:08.565Z,21.07
2022-11-19T07:06:36.306Z,20.27
2022-11-19T07:09:04.164Z,20.73
2022-11-19T07:11:31.924Z,20.63
2022-11-19T07:14:00.249Z,20.97
2022-11-19T07:16:31.539Z,20.87
2022-11-19T07:19:00.365Z,20.63
2022-11-19T07:21:28.837Z,20.73
2022-11-19T07:23:56.995Z,21.20
2022-11-19T07:26:24.867Z,20.03
2022-11-19T07:28:53.120Z,19.97
2022-11-19T07:31:21.174Z,19.77
2022-11-19T07:33:50.243Z,20.23
2022-11-19T07:36:18.694Z,20.70
2022-11-19T07:38:47.243Z,19.63
2022-11-19T07:41:32.888Z,21.23
2022-11-19T07:44:00.703Z,20.80
2022-11-19T07:46:28.490Z,20.33
2022-11-19T07:48:58.593Z,21.30
2022-11-19T07:51:27.205Z,21.37
2022-11-19T07:53:56.721Z,21.43
2022-11-19T07:56:25.107Z,20.50
2022-11-19T07:58:53.121Z,20.73
2022-11-19T08:01:23.045Z,20.90
2022-11-19T08:03:56.339Z,21.37
2022-11-19T08:06:27.268Z,21.07
2022-11-19T08:08:56.296Z,26.67
2022-11-19T08:11:24.656Z,20.43
2022-11-19T08:13:52.919Z,20.93
2022-11-19T08:16:35.285Z,20.93
2022-11-19T08:19:03.596Z,20.90
2022-11-19T08:21:32.696Z,20.03
2022-11-19T08:24:00.662Z,19.97
2022-11-19T08:26:28.524Z,20.57
2022-11-19T08:28:56.343Z,20.97
2022-11-19T08:31:24.152Z,19.90
2022-11-19T08:33:52.620Z,19.83
2022-11-19T08:36:20.419Z,19.90
2022-11-19T08:38:49.598Z,19.37
2022-11-19T08:41:34.683Z,18.80
2022-11-19T08:44:02.584Z,18.77
2022-11-19T08:46:30.583Z,19.60
2022-11-19T08:48:58.784Z,19.10
2022-11-19T08:51:26.650Z,19.40
2022-11-19T08:53:55.870Z,19.57
2022-11-19T08:56:24.289Z,18.77
2022-11-19T08:58:58.485Z,19.53
2022-11-19T09:01:29.168Z,18.63
2022-11-19T09:03:56.947Z,18.83
2022-11-19T09:06:24.761Z,18.87
2022-11-19T09:08:52.688Z,19.43
2022-11-19T09:11:23.033Z,18.50
2022-11-19T09:13:51.083Z,19.57
2022-11-19T09:16:18.909Z,18.93
2022-11-19T09:18:46.707Z,20.10
2022-11-19T09:21:14.438Z,18.13
2022-11-19T09:23:42.733Z,19.07
2022-11-19T09:26:13.448Z,19.07
2022-11-19T09:28:43.239Z,18.93
2022-11-19T09:31:13.055Z,18.50
2022-11-19T09:33:43.033Z,18.33
2022-11-19T09:36:11.747Z,17.87
2022-11-19T09:38:40.842Z,18.13
2022-11-19T09:41:33.346Z,18.57
2022-11-19T09:44:15.379Z,18.03
2022-11-19T09:46:52.777Z,17.27
2022-11-19T09:49:28.713Z,17.67
2022-11-19T09:52:01.600Z,18.00
2022-11-19T09:54:29.688Z,17.30
2022-11-19T09:57:04.412Z,17.10
2022-11-19T09:59:36.464Z,16.93
2022-11-19T10:02:05.775Z,17.23
2022-11-19T10:04:34.317Z,16.10
2022-11-19T10:07:10.270Z,17.53
2022-11-19T10:09:49.456Z,17.13
2022-11-19T10:12:27.449Z,16.93
2022-11-19T10:15:18.213Z,17.73
2022-11-19T10:17:52.008Z,17.93
2022-11-19T10:20:26.760Z,17.30
2022-11-19T10:22:58.287Z,18.07
2022-11-19T10:25:29.675Z,18.00
2022-11-19T10:28:01.831Z,18.03
2022-11-19T10:30:32.416Z,17.80
2022-11-19T10:33:02.379Z,17.27
2022-11-19T10:35:32.154Z,17.00
2022-11-19T10:38:02.165Z,17.03
2022-11-19T10:40:34.190Z,18.07
2022-11-19T10:43:06.999Z,17.10
2022-11-19T10:45:36.519Z,17.37
2022-11-19T10:48:09.572Z,17.20
2022-11-19T10:50:38.052Z,16.63
2022-11-19T10:53:09.215Z,16.30
2022-11-19T10:55:39.126Z,15.57
2022-11-19T10:58:13.490Z,16.60
2022-11-19T11:00:44.486Z,15.90
2022-11-19T11:03:20.217Z,16.53
2022-11-19T11:05:59.015Z,16.37
2022-11-19T11:08:27.265Z,16.83
2022-11-19T11:10:55.637Z,16.13
2022-11-19T11:13:55.682Z,16.90
2022-11-19T11:16:27.220Z,16.50
2022-11-19T11:18:56.092Z,17.13
2022-11-19T11:21:32.564Z,17.33
2022-11-19T11:24:02.561Z,17.73
2022-11-19T11:26:33.558Z,16.60
2022-11-19T11:29:03.486Z,16.70
2022-11-19T11:31:34.464Z,16.87
2022-11-19T11:34:03.286Z,15.83
2022-11-19T11:36:33.006Z,15.70
2022-11-19T11:39:02.296Z,15.20
2022-11-19T11:42:05.322Z,14.70
2022-11-19T11:44:27.649Z,14.30
2022-11-19T11:46:58.319Z,14.73
2022-11-19T11:49:28.525Z,15.07
2022-11-19T11:52:08.220Z,15.30
2022-11-19T11:54:36.635Z,16.83
2022-11-19T11:57:17.476Z,17.23
2022-11-19T11:59:45.955Z,17.53
2022-11-19T12:02:22.436Z,15.60
2022-11-19T12:04:51.693Z,16.10
2022-11-19T12:07:28.160Z,15.07
2022-11-19T12:10:03.371Z,16.17
2022-11-19T12:12:36.322Z,15.93
2022-11-19T12:15:11.309Z,15.57
2022-11-19T12:17:45.273Z,16.10
2022-11-19T12:20:22.924Z,15.53
2022-11-19T12:23:08.973Z,15.47
2022-11-19T12:25:39.489Z,15.77
2022-11-19T12:28:15.721Z,15.77
2022-11-19T12:30:48.907Z,16.10
2022-11-19T12:33:30.584Z,15.53
2022-11-19T12:36:05.592Z,15.80
2022-11-19T12:38:37.514Z,16.27
2022-11-19T12:41:13.994Z,15.73
2022-11-19T12:43:52.278Z,16.27
2022-11-19T12:46:22.326Z,15.37
2022-11-19T12:48:58.203Z,15.53
2022-11-19T12:51:33.675Z,14.90
2022-11-19T12:54:34.644Z,14.77
2022-11-19T12:57:13.684Z,15.93
2022-11-19T12:59:46.952Z,15.43
2022-11-19T13:02:18.486Z,14.83
2022-11-19T13:04:50.104Z,14.57
2022-11-19T13:07:23.107Z,14.63
2022-11-19T13:09:53.120Z,14.67
2022-11-19T13:12:23.069Z,14.70
2022-11-19T13:14:55.037Z,13.50
2022-11-19T13:17:25.150Z,13.80
2022-11-19T13:19:57.788Z,14.17
2022-11-19T13:22:28.703Z,13.20
2022-11-19T13:24:59.589Z,12.50
2022-11-19T13:27:29.065Z,14.20
2022-11-19T13:30:00.695Z,13.97
2022-11-19T13:32:32.593Z,13.30
2022-11-19T13:35:05.659Z,13.40
2022-11-19T13:37:40.422Z,13.07
2022-11-19T13:40:15.229Z,12.23
2022-11-19T13:46:04.908Z,12.17
2022-11-19T13:48:35.093Z,12.50
2022-11-19T13:51:09.618Z,12.93
2022-11-19T13:53:41.114Z,13.37
2022-11-19T13:56:13.867Z,13.37
2022-11-19T13:58:46.000Z,12.97
2022-11-19T14:01:21.910Z,12.30
2022-11-19T14:03:55.550Z,12.23
2022-11-19T14:06:34.820Z,13.07
2022-11-19T14:09:07.854Z,13.00
2022-11-19T14:11:46.502Z,11.97
2022-11-19T14:14:43.102Z,12.70
2022-11-19T14:17:35.127Z,12.13
2022-11-19T14:20:21.054Z,11.90
2022-11-19T14:23:14.487Z,11.50
2022-11-19T14:26:02.068Z,11.70
2022-11-19T14:28:43.836Z,11.90
2022-11-19T14:31:12.107Z,12.30
2022-11-19T14:33:58.601Z,11.43
2022-11-19T14:36:28.181Z,11.50
2022-11-19T14:38:59.178Z,12.23
2022-11-19T14:41:31.535Z,12.40
2022-11-19T14:44:09.285Z,11.20
2022-11-19T14:46:38.224Z,11.50
2022-11-19T14:49:08.483Z,12.13
2022-11-19T14:51:37.659Z,12.03
2022-11-19T14:54:09.462Z,11.97
2022-11-19T14:56:38.544Z,11.27
2022-11-19T14:59:19.645Z,11.03
2022-11-19T15:01:59.645Z,11.73
2022-11-19T15:04:33.659Z,11.90
2022-11-19T15:07:02.342Z,12.13
2022-11-19T15:09:49.358Z,11.17
2022-11-19T15:12:19.704Z,10.33
2022-11-19T15:15:01.836Z,10.30
2022-11-19T15:17:30.369Z,10.23
2022-11-19T15:20:08.975Z,10.27
2022-11-19T15:22:43.194Z,10.27
2022-11-19T15:25:24.387Z,10.10
2022-11-19T15:28:00.345Z,10.63
2022-11-19T15:30:37.881Z,10.77
2022-11-19T15:33:16.171Z,10.07
2022-11-19T15:35:57.566Z,10.30
2022-11-19T15:38:30.497Z,11.10
2022-11-19T15:41:00.342Z,10.63
2022-11-19T15:43:31.083Z,9.63
2022-11-19T15:46:02.719Z,10.30
2022-11-19T15:48:35.104Z,10.57
2022-11-19T15:51:04.283Z,10.50
2022-11-19T15:53:32.393Z,10.97
2022-11-19T15:56:03.912Z,11.00
2022-11-19T15:58:37.050Z,11.03
2022-11-19T16:01:05.745Z,9.90
2022-11-19T16:03:34.009Z,9.93
2022-11-19T16:06:03.762Z,10.67
2022-11-19T16:08:32.330Z,10.37
2022-11-19T16:11:20.484Z,10.57
2022-11-19T16:14:10.955Z,10.30
2022-11-19T16:16:56.996Z,9.73
2022-11-19T16:19:25.409Z,8.87
2022-11-19T16:21:56.089Z,9.27
2022-11-19T16:24:43.402Z,8.53
2022-11-19T16:27:12.875Z,9.00
2022-11-19T16:29:43.658Z,10.20
2022-11-19T16:32:16.826Z,10.53
2022-11-19T16:34:45.062Z,9.63
2022-11-19T16:37:13.704Z,9.67
2022-11-19T16:39:42.988Z,9.00
2022-11-19T16:42:19.066Z,8.90
2022-11-19T16:44:49.745Z,8.73
2022-11-19T16:47:21.889Z,9.43
2022-11-19T16:50:01.422Z,8.47
2022-11-19T16:52:39.987Z,8.60
2022-11-19T16:55:10.858Z,8.50
2022-11-19T16:57:39.010Z,8.17
2022-11-19T17:00:17.295Z,7.77
2022-11-19T17:02:45.586Z,7.87
2022-11-19T17:05:15.159Z,8.67
2022-11-19T17:07:44.247Z,8.17
2022-11-19T17:10:30.231Z,7.53
2022-11-19T17:12:59.716Z,8.07
2022-11-19T17:15:36.798Z,8.60
2022-11-19T17:18:14.009Z,8.77
2022-11-19T17:21:00.110Z,8.13
2022-11-19T17:23:29.311Z,8.73
2022-11-19T17:25:58.373Z,7.97
2022-11-19T17:28:38.122Z,8.40
2022-11-19T17:31:09.018Z,8.30
2022-11-19T17:33:37.839Z,8.43
2022-11-19T17:36:06.172Z,8.20
2022-11-19T17:38:34.437Z,8.27
2022-11-19T17:41:04.857Z,9.03
2022-11-19T17:43:51.304Z,8.70
2022-11-19T17:46:21.080Z,9.17
2022-11-19T17:48:50.082Z,8.50
2022-11-19T17:51:18.818Z,8.73
2022-11-19T17:53:47.646Z,9.37
2022-11-19T17:56:19.046Z,9.60
2022-11-19T17:58:47.192Z,10.40
2022-11-19T18:01:15.529Z,9.73
2022-11-19T18:03:45.260Z,9.60
2022-11-19T18:06:13.794Z,9.03
2022-11-19T18:08:42.291Z,8.60
2022-11-19T18:11:12.651Z,8.40
2022-11-19T18:13:41.273Z,8.53
2022-11-19T18:16:16.736Z,8.40
2022-11-19T18:18:46.241Z,8.67
2022-11-19T18:21:15.552Z,8.77
2022-11-19T18:23:44.455Z,9.03
2022-11-19T18:26:12.865Z,8.23
2022-11-19T18:28:43.675Z,8.93
2022-11-19T18:31:16.279Z,8.73
2022-11-19T18:33:47.870Z,9.00
2022-11-19T18:36:16.134Z,8.43
2022-11-19T18:38:44.365Z,9.33
2022-11-19T18:41:13.038Z,9.93
2022-11-19T18:43:59.396Z,10.57
2022-11-19T18:46:28.009Z,9.60
2022-11-19T18:48:57.463Z,9.30
2022-11-19T18:51:25.821Z,9.00
2022-11-19T18:53:53.968Z,9.23
2022-11-19T18:56:22.120Z,9.37
2022-11-19T18:58:50.354Z,9.10
2022-11-19T19:01:18.774Z,10.33
2022-11-19T19:03:46.989Z,12.57
2022-11-19T19:06:16.494Z,9.87
2022-11-19T19:08:45.202Z,8.93
2022-11-19T19:11:30.789Z,8.10
2022-11-19T19:13:59.045Z,9.23
2022-11-19T19:16:27.234Z,9.73
2022-11-19T19:18:55.478Z,9.33
2022-11-19T19:21:24.986Z,9.90
2022-11-19T19:23:53.398Z,9.20
2022-11-19T19:26:21.559Z,10.63
2022-11-19T19:28:51.535Z,10.03
2022-11-19T19:31:19.759Z,10.50
2022-11-19T19:33:48.131Z,11.60
2022-11-19T19:36:16.889Z,12.30
2022-11-19T19:38:46.625Z,11.60
2022-11-19T19:41:16.499Z,10.80
2022-11-19T19:43:44.654Z,10.53
2022-11-19T19:46:15.755Z,9.60
2022-11-19T19:48:44.229Z,11.27
2022-11-19T19:51:13.346Z,10.07
2022-11-19T19:53:41.803Z,11.00
2022-11-19T19:56:13.474Z,9.80
2022-11-19T19:58:43.570Z,10.80
2022-11-19T20:01:12.695Z,10.57
2022-11-19T20:03:41.287Z,10.57
2022-11-19T20:06:10.594Z,10.40
2022-11-19T20:08:38.978Z,10.03
2022-11-19T20:11:08.605Z,9.90
2022-11-19T20:13:39.596Z,9.93
2022-11-19T20:16:13.160Z,9.47
2022-11-19T20:18:44.579Z,9.50
2022-11-19T20:21:13.810Z,9.47
2022-11-19T20:23:42.568Z,9.43
2022-11-19T20:26:12.160Z,9.80
2022-11-19T20:28:41.775Z,9.10
2022-11-19T20:31:10.797Z,9.63
2022-11-19T20:33:39.515Z,9.20
2022-11-19T20:36:08.601Z,9.43
2022-11-19T20:38:37.401Z,9.43
2022-11-19T20:41:06.778Z,9.90
2022-11-19T20:43:54.178Z,9.87
2022-11-19T20:46:23.690Z,9.97
2022-11-19T20:48:51.831Z,10.63
2022-11-19T20:51:21.458Z,10.60
2022-11-19T20:53:49.599Z,11.07
2022-11-19T20:56:17.730Z,11.37
2022-11-19T20:58:45.891Z,10.57
2022-11-19T21:01:13.991Z,10.97
2022-11-19T21:03:43.464Z,10.20
2022-11-19T21:06:11.591Z,10.17
2022-11-19T21:08:39.741Z,9.67
2022-11-19T21:11:09.384Z,9.47
2022-11-19T21:13:37.724Z,10.00
2022-11-19T21:16:06.847Z,9.73
2022-11-19T21:18:37.040Z,9.30
2022-11-19T21:21:07.417Z,9.23
2022-11-19T21:23:35.615Z,9.40
2022-11-19T21:26:03.904Z,9.77
2022-11-19T21:28:33.114Z,9.10
2022-11-19T21:31:02.015Z,9.93
2022-11-19T21:33:30.230Z,9.20
2022-11-19T21:35:58.949Z,9.73
2022-11-19T21:38:28.495Z,10.03
2022-11-19T21:40:56.871Z,9.63
2022-11-19T21:43:25.429Z,10.17
2022-11-19T21:45:54.210Z,9.17
2022-11-19T21:48:22.846Z,9.43
2022-11-19T21:50:51.152Z,10.03
2022-11-19T21:53:19.924Z,10.60
2022-11-19T21:55:50.173Z,9.67
2022-11-19T21:58:18.642Z,10.00
2022-11-19T22:00:47.038Z,9.93
2022-11-19T22:03:15.573Z,10.43
2022-11-19T22:05:43.733Z,9.80
2022-11-19T22:08:11.863Z,10.27
2022-11-19T22:10:45.237Z,10.57
2022-11-19T22:13:15.118Z,10.63
2022-11-19T22:15:43.495Z,10.17
2022-11-19T22:18:11.621Z,10.73
2022-11-19T22:20:41.335Z,10.63
2022-11-19T22:23:09.542Z,10.37
2022-11-19T22:25:37.712Z,10.50
2022-11-19T22:28:05.999Z,10.07
2022-11-19T22:30:35.579Z,10.87
2022-11-19T22:33:03.740Z,10.67
2022-11-19T22:35:31.924Z,10.23
2022-11-19T22:38:00.060Z,10.83
2022-11-19T22:40:28.166Z,10.40
2022-11-19T22:42:56.312Z,9.90
2022-11-19T22:45:24.490Z,10.17
2022-11-19T22:47:54.013Z,10.03
2022-11-19T22:50:22.201Z,9.63
2022-11-19T22:52:50.363Z,9.97
2022-11-19T22:55:18.677Z,9.70
2022-11-19T22:57:46.814Z,9.57
2022-11-19T23:00:35.599Z,9.53
2022-11-19T23:03:05.209Z,9.80
2022-11-19T23:05:37.143Z,10.07
2022-11-19T23:08:06.229Z,10.03
2022-11-19T23:10:34.758Z,10.80
2022-11-19T23:13:20.685Z,10.90
2022-11-19T23:15:58.139Z,10.80
2022-11-19T23:18:27.672Z,11.93
2022-11-19T23:20:56.887Z,11.23
2022-11-19T23:23:25.101Z,10.23
2022-11-19T23:25:56.457Z,10.63
2022-11-19T23:28:24.754Z,9.77
2022-11-19T23:30:52.851Z,11.00
2022-11-19T23:33:21.353Z,10.23
2022-11-19T23:35:50.840Z,10.83
2022-11-19T23:38:18.995Z,10.33
2022-11-19T23:40:47.278Z,10.53
2022-11-19T23:43:15.386Z,9.70
2022-11-19T23:45:43.498Z,10.87
2022-11-19T23:48:11.641Z,10.47
2022-11-19T23:50:39.809Z,10.63
2022-11-19T23:53:09.280Z,10.77
2022-11-19T23:55:37.468Z,10.73
2022-11-19T23:58:05.641Z,10.60
